WetterOnline ( https://www.wetteronline.de )

Wetter aktuell Ostalb

Aktuelles Wetter: Geislingen/Stötten (737m)

6-stündlich | Neueste Meldungen
Ortszeit Temperatur Wetter
Sa, 16.11. 19:00 1.8° C fast wolkenlos
Sa, 16.11. 13:00 3.2° C bedeckt
Sa, 16.11. 7:00 1.2° C Nebel
Sa, 16.11. 1:00 2.1° C leichter Regen
Fr, 15.11. 19:00 2.7° C bewölkt
Fr, 15.11. 13:00 4.1° C bewölkt
Fr, 15.11. 7:00 1.2° C wolkig
Fr, 15.11. 1:00 0.3° C wolkig
Ortszeit Temperatur Wetter
Sa, 16.11. 22:00 2.1° C bedeckt
Sa, 16.11. 21:30 2.2° C Nebel
Sa, 16.11. 21:20 2.2° C Nebel
Sa, 16.11. 21:10 2.3° C bewölkt
Sa, 16.11. 21:00 2.0° C bewölkt
Sa, 16.11. 20:50 2.0° C bewölkt
Sa, 16.11. 20:30 2.2° C bewölkt
Sa, 16.11. 20:00 2.0° C leicht bewölkt
Ortszeit Relative Feuchte Sichtweite
Sa, 16.11. 19:00 99% 4.4 km
Sa, 16.11. 13:00 97% 6 km
Sa, 16.11. 7:00 100% 0.2 km
Sa, 16.11. 1:00 100% 0.2 km
Fr, 15.11. 19:00 91% 12 km
Fr, 15.11. 13:00 75% 40 km
Fr, 15.11. 7:00 83% 35 km
Fr, 15.11. 1:00 96% 5.0 km
Ortszeit Relative Feuchte Sichtweite
Sa, 16.11. 22:00 100% 1.5 km
Sa, 16.11. 21:30 100% 0.8 km
Sa, 16.11. 21:20 100% -
Sa, 16.11. 21:10 100% -
Sa, 16.11. 21:00 100% 4.0 km
Sa, 16.11. 20:50 100% -
Sa, 16.11. 20:30 99% 3.7 km
Sa, 16.11. 20:00 99% 5.0 km
Ortszeit Niederschlagsmenge Niederschlagsart
Sa, 16.11. 19:00 0.0 l/m2 in 12 Std. -
Sa, 16.11. 13:00 0.0 l/m2 in 6 Std. -
Sa, 16.11. 7:00 5 l/m2 in 12 Std. Regen
Sa, 16.11. 1:00 5 l/m2 in 6 Std. Regen
Fr, 15.11. 19:00 0.1 l/m2 in 12 Std. Regen
Fr, 15.11. 13:00 0.1 l/m2 in 6 Std. Regen, Niederschlag
Fr, 15.11. 7:00 0.0 l/m2 in 12 Std. -
Fr, 15.11. 1:00 0.0 l/m2 in 6 Std. -
Ortszeit Niederschlagsmenge Niederschlagsart
Sa, 16.11. 22:00 0.0 l/m2 in 1 Std. -
Sa, 16.11. 21:30 0.0 l/m2 in 1 Std. -
Sa, 16.11. 21:20 keine Meldung -
Sa, 16.11. 21:10 keine Meldung -
Sa, 16.11. 21:00 0.0 l/m2 in 1 Std. -
Sa, 16.11. 20:50 keine Meldung -
Sa, 16.11. 20:30 0.0 l/m2 in 1 Std. -
Sa, 16.11. 20:00 0.0 l/m2 in 1 Std. -
Ortszeit Stärke Spitze Richtung
km/h Bft. km/h Grad Sektor
Sa, 16.11. 19:00 9 2 20 100° O
Sa, 16.11. 13:00 7 2 18 180° S
Sa, 16.11. 7:00 4 1 18 130° SO
Sa, 16.11. 1:00 9 2 22 250° W
Fr, 15.11. 19:00 22 4 32 90° O
Fr, 15.11. 13:00 22 4 43 270° W
Fr, 15.11. 7:00 31 5 44 90° O
Fr, 15.11. 1:00 24 4 44 110° O
Ortszeit Stärke Spitze Richtung
km/h Bft. km/h Grad Sektor
Sa, 16.11. 22:00 13 3 22 110° O
Sa, 16.11. 21:30 13 3 19 110° O
Sa, 16.11. 21:20 13 3 - 110° O
Sa, 16.11. 21:10 9 2 - 120° SO
Sa, 16.11. 21:00 11 2 18 120° SO
Sa, 16.11. 20:50 11 2 - 120° SO
Sa, 16.11. 20:30 7 2 11 130° SO
Sa, 16.11. 20:00 7 2 18 130° SO
Ortszeit Untergrenze Bedeckung Gattung
total tief tief mittel hoch
Sa, 16.11. 19:00 90 m 1/8 1/8 - - -
Sa, 16.11. 13:00 60 m 8/8 8/8 - - -
Sa, 16.11. 7:00 <30 m 7/8 0/8 - - -
Sa, 16.11. 1:00 600 m 6/8 6/8 - - -
Fr, 15.11. 19:00 1140 m 7/8 7/8 - - -
Fr, 15.11. 13:00 1500 m 7/8 7/8 - - -
Fr, 15.11. 7:00 5100 m 6/8 4/8 - - -
Fr, 15.11. 1:00 6300 m 7/8 5/8 - - -
Ortszeit Bedeckungsgrad in Achtel und Wolkenuntergrenze
Sa, 16.11. 22:00 5(<30m) 7(180m) 8(270m)
Sa, 16.11. 21:30 7(30m) 7(240m) 8(210m)
Sa, 16.11. 21:20 7(30m) 7(240m)
Sa, 16.11. 21:10 4(30m) 7(120m) 7(240m)
Sa, 16.11. 21:00 4(<30m) 6(120m) 7(270m)
Sa, 16.11. 20:50 4(<30m) 6(120m) 7(270m)
Sa, 16.11. 20:30 4(180m) 7(300m)
Sa, 16.11. 20:00 4(120m) 4(270m)
Ortszeit Luftdruck NN (hPa) Tendenz (hPa in 3 Std.)
Sa, 16.11. 19:00 1013 + 0,4
Sa, 16.11. 13:00 1011 + 1,7
Sa, 16.11. 7:00 1008 + 2,1
Sa, 16.11. 1:00 1005 + 0,4
Fr, 15.11. 19:00 1004 + 0,6
Fr, 15.11. 13:00 1002 + 2,7
Fr, 15.11. 7:00 995 - 2,0
Fr, 15.11. 1:00 1000 - 1,0
Ortszeit Luftdruck NN (hPa) Tendenz (hPa in 3 Std.)
Sa, 16.11. 22:00 1014 + 0,4
Sa, 16.11. 21:30 1014 + 1,0
Sa, 16.11. 21:20 1014 keine Meldung
Sa, 16.11. 21:10 1014 keine Meldung
Sa, 16.11. 21:00 1014 + 0,8
Sa, 16.11. 20:50 1014 keine Meldung
Sa, 16.11. 20:30 1014 + 0,7
Sa, 16.11. 20:00 1014 + 0,7
Ortszeit Schneehöhe (cm)
Sa, 16.11. 19:00 0
Sa, 16.11. 13:00 0
Sa, 16.11. 7:00 0
Sa, 16.11. 1:00 0
Fr, 15.11. 19:00 0
Fr, 15.11. 13:00 0
Fr, 15.11. 7:00 0
Fr, 15.11. 1:00 0
Ortszeit Schneehöhe (cm)
Sa, 16.11. 22:00 0
Sa, 16.11. 21:30 0
Sa, 16.11. 21:20 0
Sa, 16.11. 21:10 0
Sa, 16.11. 21:00 0
Sa, 16.11. 20:50 0
Sa, 16.11. 20:30 0
Sa, 16.11. 20:00 0
Link zu dieser Seite / Seite empfehlen

Das Wetter in ...